Nearby METAR Reports

 

KCFV - Coffeyville, Kansas, USA
Distance from station: ENE 93mi, 150km
Updated: Thu, 09-24-2020 9:52pm CDT
Clear
Clear
 Wind from S
Wind: S 6 mph , 9 km/h
Temperature: 64°F , 18°C
Dew Point: 59°F , 15°C
Humidity: 83%
Barometer: 1011.9 hPa
Clouds: Clear
Visibility: 10 miles , 16 km
2020/09/25 02:52 KCFV 250252Z AUTO 18005KT 10SM CLR 18/15 A2988 RMK AO2 SLP116 T01780150 53005
KIDP - Independence, Kansas, USA
Distance from station: NE 86mi, 138km
Updated: Thu, 09-24-2020 9:55pm CDT
Clear
Clear
 Wind from S
Wind: S 7 mph , 11 km/h
Temperature: 63°F , 17°C
Dew Point: 59°F , 15°C
Humidity: 88%
Barometer: 1012.5 hPa
Clouds: Clear
Visibility: 10 miles , 16 km
2020/09/25 02:55 KIDP 250255Z AUTO 18006KT 10SM CLR 17/15 A2990 RMK AO2 T01740153
KIAB - Mcconnell Afb, Kansas, USA
Distance from station: N 84mi, 135km
Updated: Thu, 09-24-2020 9:56pm CDT
Clear
Clear
 Wind from S
Wind: S 13 mph , 20 km/h
Temperature: 70°F , 21°C
Dew Point: 61°F , 16°C
Humidity: 73%
Barometer: 1011.2 hPa
Clouds: Clear
Visibility: 10 miles , 16 km
2020/09/25 02:56 KIAB 250256Z AUTO 18011KT 10SM CLR 21/16 A2986 RMK AO2 SLP105 T02140155 53006
 
KICT - Wichita, Kansas, USA
Distance from station: NNW 88mi, 142km
Updated: Thu, 09-24-2020 9:53pm CDT
Clear
Clear
 Wind from SSE
Wind: SSE 10 mph , 17 km/h
Temperature: 70°F , 21°C
Dew Point: 63°F , 17°C
Humidity: 78%
Barometer: 1011.2 hPa
Clouds: Clear
Visibility: 10 miles , 16 km
2020/09/25 02:53 KICT 250253Z 16009KT 10SM CLR 21/17 A2986 RMK AO2 SLP099 T02110167 53008
KAAO - Wichita/Jabara, Kansas, USA
Distance from station: N 93mi, 149km
Updated: Thu, 09-24-2020 9:54pm CDT
Clear
Clear
 Wind from S
Wind: S 12 mph , 19 km/h
Temperature: 72°F , 22°C
Dew Point: 61°F , 16°C
Humidity: 69%
Barometer: 1011.2 hPa
Clouds: Clear
Visibility: 10 miles , 16 km
2020/09/25 02:54 KAAO 250254Z AUTO 17010KT 10SM CLR 22/16 A2986 RMK AO2 SLP102 T02170161 53006
KWLD - Winfield/Arkansa, Kansas, USA
Distance from station: N 52mi, 84km
Updated: Thu, 09-24-2020 9:54pm CDT
Clear
Clear
 Wind from SSE
Wind: SSE 9 mph , 15 km/h
Temperature: 70°F , 21°C
Dew Point: 63°F , 17°C
Humidity: 78%
Barometer: 1012.2 hPa
Clouds: Clear
Visibility: 10 miles , 16 km
2020/09/25 02:54 KWLD 250254Z AUTO 15008KT 10SM CLR 21/17 A2989 RMK AO2 SLP112 T02060167 53006
 
KAVK - Alva, Oklahoma, USA
Distance from station: WNW 94mi, 152km
Updated: Thu, 09-24-2020 10:15pm CDT
Few Clouds
Few Clouds
 Wind from S
Wind: S 14 mph , 22 km/h
Temperature: 73°F , 23°C
Dew Point: 61°F , 16°C
Humidity: 65%
Barometer: 1010.8 hPa
Clouds: Few Clouds
Visibility: 10 miles , 16 km
Cloud details: Few Clouds 5000 ft
2020/09/25 03:15 KAVK 250315Z AUTO 17012KT 10SM FEW050 23/16 A2985 RMK AO2 PWINO TSNO
KBVO - Bartlesville, Oklahoma, USA
Distance from station: ENE 61mi, 98km
Updated: Thu, 09-24-2020 9:53pm CDT
Clear
Clear
 Wind from calm
Wind: Calm
Temperature: 64°F , 18°C
Dew Point: 61°F , 16°C
Humidity: 88%
Barometer: 1012.5 hPa
Clouds: Clear
Visibility: 10 miles , 16 km
2020/09/25 02:53 KBVO 250253Z AUTO 00000KT 10SM CLR 18/16 A2990 RMK AO2 SLP117 T01780161 53005
KBKN - Blackwell, Oklahoma, USA
Distance from station: NW 29mi, 47km
Updated: Thu, 09-24-2020 10:15pm CDT
Clear
Clear
 Wind from SE
Wind: SE 8 mph , 13 km/h
Temperature: 70°F , 21°C
Dew Point: 66°F , 19°C
Humidity: 88%
Barometer: 1011.5 hPa
Clouds: Clear
Visibility: 10 miles , 16 km
2020/09/25 03:15 KBKN 250315Z AUTO 14007KT 10SM CLR 21/19 A2987 RMK AO2
 
KGCM - Claremore, Oklahoma, USA
Distance from station: E 86mi, 138km
Updated: Thu, 09-24-2020 10:15pm CDT
Clear
Clear
 Wind from SSE
Wind: SSE 3 mph , 6 km/h
Temperature: 61°F , 16°C
Dew Point: 54°F , 12°C
Humidity: 77%
Barometer: 1013.5 hPa
Clouds: Clear
Visibility: 10 miles , 16 km
2020/09/25 03:15 KGCM 250315Z AUTO 16003KT 10SM CLR 16/12 A2993 RMK AO2
KCQB - Chandler, Oklahoma, USA
Distance from station: SSE 50mi, 80km
Updated: Thu, 09-24-2020 9:55pm CDT
Clear
Clear
 Wind from SSE
Wind: SSE 6 mph , 9 km/h
Temperature: 66°F , 19°C
Dew Point: 63°F , 17°C
Humidity: 88%
Barometer: 1013.2 hPa
Clouds: Clear
Visibility: 10 miles , 16 km
2020/09/25 02:55 KCQB 250255Z AUTO 16005KT 10SM CLR 19/17 A2992 RMK AO2 T01920168
KCUH - Cushing, Oklahoma, USA
Distance from station: SSE 35mi, 57km
Updated: Thu, 09-24-2020 9:55pm CDT
Clear
Clear
 Wind from calm
Wind: Calm
Temperature: 64°F , 18°C
Dew Point: 63°F , 17°C
Humidity: 94%
Barometer: 1012.5 hPa
Clouds: Clear
Visibility: 10 miles , 16 km
2020/09/25 02:55 KCUH 250255Z AUTO 00000KT 10SM CLR 18/17 A2990 RMK AO2 T01800166
 
KRQO - El Reno Muni, Oklahoma, USA
Distance from station: SW 85mi, 137km
Updated: Thu, 09-24-2020 9:15pm CDT
Clear
Clear
 Wind from S
Wind: S 10 mph , 17 km/h
Temperature: 68°F , 20°C
Dew Point: 63°F , 17°C
Humidity: 83%
Barometer: 1012.9 hPa
Clouds: Clear
Visibility: 10 miles , 16 km
2020/09/25 02:15 KRQO 250215Z AUTO 17009KT 10SM CLR 20/17 A2991 RMK AO2 T02000170
KEND - Enid/Vance Afb, Oklahoma, USA
Distance from station: W 50mi, 81km
Updated: Thu, 09-24-2020 9:56pm CDT
Clear
Clear
 Wind from SSE
Wind: SSE 12 mph , 19 km/h
Temperature: 72°F , 22°C
Dew Point: 68°F , 20°C
Humidity: 88%
Barometer: 1011.2 hPa
Clouds: Clear
Visibility: 10 miles , 16 km
2020/09/25 02:56 KEND 250256Z AUTO 15010KT 10SM CLR 22/20 A2986 RMK AO2 SLPNO T02180201 53007 CHINO RWY35C $
KWDG - Enid/Woodring, Oklahoma, USA
Distance from station: W 42mi, 67km
Updated: Thu, 09-24-2020 10:15pm CDT
Clear
Clear
 Wind from SSE
Wind: SSE 8 mph , 13 km/h
Barometer: 1011.2 hPa
Clouds: Clear
Visibility: 10 miles , 16 km
2020/09/25 03:15 KWDG 250315Z AUTO 16007KT 10SM CLR A2986 RMK AO2
 
KGOK - Guthrie, Oklahoma, USA
Distance from station: SSW 44mi, 71km
Updated: Thu, 09-24-2020 9:53pm CDT
Clear
Clear
 Wind from SSE
Wind: SSE 8 mph , 13 km/h
Temperature: 70°F , 21°C
Dew Point: 64°F , 18°C
Humidity: 83%
Barometer: 1012.2 hPa
Clouds: Clear
Visibility: 10 miles , 16 km
2020/09/25 02:53 KGOK 250253Z AUTO 16007KT 10SM CLR 21/18 A2989 RMK AO2 SLP115 T02110178 53007
KOUN - Norman/Westheime, Oklahoma, USA
Distance from station: SSW 84mi, 136km
Updated: Thu, 09-24-2020 10:15pm CDT
Clear
Clear
 Wind from SSE
Wind: SSE 7 mph , 11 km/h
Temperature: 68°F , 20°C
Dew Point: 63°F , 17°C
Humidity: 83%
Barometer: 1012.5 hPa
Clouds: Clear
Visibility: 10 miles , 16 km
2020/09/25 03:15 KOUN 250315Z AUTO 16006KT 10SM CLR 20/17 A2990 RMK AO2 T01990175
KOKC - Oklahoma City, Oklahoma, USA
Distance from station: SSW 78mi, 126km
Updated: Thu, 09-24-2020 9:52pm CDT
Clear
Clear
 Wind from S
Wind: S 6 mph , 9 km/h
Temperature: 66°F , 19°C
Dew Point: 63°F , 17°C
Humidity: 88%
Barometer: 1012.9 hPa
Clouds: Clear
Visibility: 10 miles , 16 km
2020/09/25 02:52 KOKC 250252Z 17005KT 10SM CLR 19/17 A2991 RMK AO2 SLP117 T01890167 53008
 
KPWA - Okla City/Wiley, Oklahoma, USA
Distance from station: SSW 70mi, 113km
Updated: Thu, 09-24-2020 9:53pm CDT
Clear
Clear
 Wind from S
Wind: S 10 mph , 17 km/h
Temperature: 72°F , 22°C
Dew Point: 63°F , 17°C
Humidity: 73%
Barometer: 1012.5 hPa
Clouds: Clear
Visibility: 10 miles , 16 km
2020/09/25 02:53 KPWA 250253Z AUTO 17009KT 10SM CLR 22/17 A2990 RMK AO2 SLP113 T02170172 53008
KRCE - Okla City/Page, Oklahoma, USA
Distance from station: SW 78mi, 126km
Updated: Thu, 09-24-2020 9:55pm CDT

 Wind from SSE
Wind: SSE 8 mph , 13 km/h
Temperature: 66°F , 19°C
Dew Point: 63°F , 17°C
Humidity: 88%
Barometer: 1012.5 hPa
Visibility: 10 miles , 16 km
2020/09/25 02:55 KRCE 250255Z AUTO 16007KT 10SM 19/17 A2990 RMK AO2
KOKM - Okmulgee, Oklahoma, USA
Distance from station: SE 79mi, 127km
Updated: Thu, 09-24-2020 9:55pm CDT
Clear
Clear
 Wind from calm
Wind: Calm
Temperature: 64°F , 18°C
Dew Point: 64°F , 18°C
Humidity: 100%
Barometer: 1013.2 hPa
Clouds: Clear
Visibility: 10 miles , 16 km
2020/09/25 02:55 KOKM 250255Z AUTO 00000KT 10SM CLR 18/18 A2992 RMK AO2 T01790179
 
KPNC - Ponca City, Oklahoma, USA
Distance from station: N 22mi, 36km
Updated: Thu, 09-24-2020 9:53pm CDT
Clear
Clear
 Wind from SSE
Wind: SSE 13 mph , 20 km/h
Temperature: 72°F , 22°C
Dew Point: 63°F , 17°C
Humidity: 73%
Barometer: 1011.5 hPa
Clouds: Clear
Visibility: 10 miles , 16 km
2020/09/25 02:53 KPNC 250253Z AUTO 15011KT 10SM CLR 22/17 A2987 RMK AO2 SLP105 T02220167 53006
KSNL - Shawnee, Oklahoma, USA
Distance from station: S 74mi, 119km
Updated: Thu, 09-24-2020 9:55pm CDT
Clear
Clear
 Wind from SSE
Wind: SSE 6 mph , 9 km/h
Temperature: 66°F , 19°C
Dew Point: 63°F , 17°C
Humidity: 88%
Barometer: 1013.2 hPa
Clouds: Clear
Visibility: 10 miles , 16 km
2020/09/25 02:55 KSNL 250255Z AUTO 15005KT 10SM CLR 19/17 A2992 RMK AO2 T01850165
KSWO - Stillwater, Oklahoma, USA
Distance from station: S 17mi, 28km
Updated: Thu, 09-24-2020 9:53pm CDT
Clear
Clear
 Wind from SSE
Wind: SSE 8 mph , 13 km/h
Temperature: 72°F , 22°C
Dew Point: 63°F , 17°C
Humidity: 73%
Barometer: 1012.2 hPa
Clouds: Clear
Visibility: 10 miles , 16 km
2020/09/25 02:53 KSWO 250253Z AUTO 16007KT 10SM CLR 22/17 A2989 RMK AO2 SLP111 T02220172 53007
 
KTIK - Tinker Afb, Oklahoma, USA
Distance from station: SSW 72mi, 115km
Updated: Thu, 09-24-2020 9:56pm CDT
Clear
Clear
 Wind from S
Wind: S 13 mph , 20 km/h
Temperature: 68°F , 20°C
Dew Point: 63°F , 17°C
Humidity: 83%
Barometer: 1012.9 hPa
Clouds: Clear
Visibility: 10 miles , 16 km
2020/09/25 02:56 KTIK 250256Z AUTO 17011KT 10SM CLR 20/17 A2991 RMK AO2 SLP127 T02040174 53008
KTUL - Tulsa, Oklahoma, USA
Distance from station: ESE 65mi, 105km
Updated: Thu, 09-24-2020 9:53pm CDT
Clear
Clear
 Wind from S
Wind: S 10 mph , 17 km/h
Temperature: 72°F , 22°C
Dew Point: 63°F , 17°C
Humidity: 73%
Barometer: 1012.5 hPa
Clouds: Clear
Visibility: 10 miles , 16 km
2020/09/25 02:53 KTUL 250253Z 17009KT 10SM CLR 22/17 A2990 RMK AO2 SLP121 T02170167 53009